createdAt,value
2022-08-17T00:01:31.454Z,4.97
2022-08-17T00:04:19.165Z,4.80
2022-08-17T00:07:01.756Z,4.95
2022-08-17T00:09:28.097Z,4.40
2022-08-17T00:12:35.527Z,4.82
2022-08-17T00:14:40.839Z,4.80
2022-08-17T00:17:07.856Z,4.97
2022-08-17T00:19:34.227Z,4.80
2022-08-17T00:22:31.864Z,4.90
2022-08-17T00:24:50.105Z,4.93
2022-08-17T00:27:17.123Z,4.60
2022-08-17T00:29:45.350Z,4.68
2022-08-17T00:33:13.795Z,5.00
2022-08-17T00:34:59.395Z,4.60
2022-08-17T00:37:25.822Z,4.82
2022-08-17T00:39:52.297Z,4.72
2022-08-17T00:42:19.941Z,4.97
2022-08-17T00:44:46.372Z,4.68
2022-08-17T00:47:13.352Z,4.60
2022-08-17T00:49:40.021Z,4.60
2022-08-17T00:52:16.571Z,4.60
2022-08-17T00:54:46.787Z,4.63
2022-08-17T00:57:19.944Z,4.18
2022-08-17T01:00:01.936Z,4.55
2022-08-17T01:02:41.689Z,4.65
2022-08-17T01:05:18.847Z,4.72
2022-08-17T01:07:47.701Z,4.35
2022-08-17T01:10:58.953Z,4.45
2022-08-17T01:13:02.711Z,4.32
2022-08-17T01:15:31.915Z,3.90
2022-08-17T01:17:58.296Z,3.90
2022-08-17T01:20:24.982Z,4.07
2022-08-17T01:22:51.863Z,3.90
2022-08-17T01:25:19.952Z,3.83
2022-08-17T01:27:47.655Z,3.50
2022-08-17T01:30:58.911Z,4.07
2022-08-17T01:33:02.040Z,3.70
2022-08-17T01:35:28.439Z,3.75
2022-08-17T01:37:54.830Z,5.15
2022-08-17T01:40:51.121Z,3.85
2022-08-17T01:43:30.115Z,3.88
2022-08-17T01:46:03.247Z,4.30
2022-08-17T01:48:35.858Z,3.63
2022-08-17T01:51:03.401Z,3.70
2022-08-17T01:53:36.603Z,4.07
2022-08-17T01:56:09.014Z,3.63
2022-08-17T01:58:36.993Z,3.53
2022-08-17T02:01:05.513Z,3.72
2022-08-17T02:03:34.413Z,3.67
2022-08-17T02:06:01.526Z,3.72
2022-08-17T02:08:38.804Z,3.60
2022-08-17T02:11:11.490Z,3.50
2022-08-17T02:13:38.746Z,3.53
2022-08-17T02:16:05.693Z,3.90
2022-08-17T02:18:32.207Z,4.05
2022-08-17T02:20:58.649Z,3.45
2022-08-17T02:23:28.343Z,3.65
2022-08-17T02:25:57.545Z,3.63
2022-08-17T02:28:23.924Z,3.90
2022-08-17T02:31:01.794Z,4.30
2022-08-17T02:33:41.941Z,3.60
2022-08-17T02:36:11.758Z,3.65
2022-08-17T02:38:39.360Z,3.78
2022-08-17T02:41:06.363Z,3.88
2022-08-17T02:43:33.042Z,3.67
2022-08-17T02:45:59.449Z,3.47
2022-08-17T02:48:30.792Z,3.25
2022-08-17T02:50:58.933Z,3.40
2022-08-17T02:53:25.589Z,4.00
2022-08-17T02:55:52.889Z,3.92
2022-08-17T02:58:34.580Z,3.42
2022-08-17T03:01:03.177Z,3.67
2022-08-17T03:03:29.621Z,3.78
2022-08-17T03:05:56.205Z,4.45
2022-08-17T03:08:23.208Z,3.83
2022-08-17T03:10:50.299Z,3.85
2022-08-17T03:13:16.889Z,4.10
2022-08-17T03:15:45.252Z,4.15
2022-08-17T03:18:19.204Z,4.20
2022-08-17T03:20:54.826Z,3.70
2022-08-17T03:23:23.655Z,3.90
2022-08-17T03:25:53.411Z,4.15
2022-08-17T03:28:21.092Z,3.83
2022-08-17T03:30:47.629Z,4.35
2022-08-17T03:33:14.544Z,3.72
2022-08-17T03:35:41.635Z,4.00
2022-08-17T03:38:10.403Z,4.20
2022-08-17T03:40:58.527Z,3.60
2022-08-17T03:43:24.565Z,3.60
2022-08-17T03:46:10.738Z,3.65
2022-08-17T03:49:12.420Z,3.85
2022-08-17T03:51:57.323Z,3.65
2022-08-17T03:54:42.090Z,4.00
2022-08-17T03:57:11.150Z,3.87
2022-08-17T03:59:38.332Z,3.70
2022-08-17T04:02:12.888Z,3.75
2022-08-17T04:04:39.800Z,3.60
2022-08-17T04:07:07.405Z,3.83
2022-08-17T04:09:34.456Z,3.70
2022-08-17T04:12:02.381Z,3.40
2022-08-17T04:14:36.098Z,3.72
2022-08-17T04:17:12.577Z,3.58
2022-08-17T04:19:39.049Z,3.63
2022-08-17T04:22:05.677Z,3.90
2022-08-17T04:24:33.328Z,4.10
2022-08-17T04:27:01.548Z,4.10
2022-08-17T04:29:27.936Z,3.88
2022-08-17T04:32:14.297Z,3.90
2022-08-17T04:34:40.679Z,3.60
2022-08-17T04:37:08.592Z,3.58
2022-08-17T04:39:35.044Z,4.10
2022-08-17T04:42:07.485Z,4.18
2022-08-17T04:44:37.637Z,3.78
2022-08-17T04:47:05.015Z,4.18
2022-08-17T04:49:32.474Z,4.22
2022-08-17T04:52:04.426Z,4.03
2022-08-17T04:54:31.440Z,4.07
2022-08-17T04:56:57.834Z,3.63
2022-08-17T04:59:24.352Z,3.22
2022-08-17T05:01:52.160Z,3.85
2022-08-17T05:04:34.023Z,3.67
2022-08-17T05:07:02.340Z,4.18
2022-08-17T05:09:28.995Z,3.70
2022-08-17T05:11:56.298Z,3.97
2022-08-17T05:14:33.627Z,4.03
2022-08-17T05:17:01.142Z,3.78
2022-08-17T05:19:28.212Z,4.07
2022-08-17T05:21:54.640Z,4.10
2022-08-17T05:24:39.143Z,3.83
2022-08-17T05:27:07.413Z,3.92
2022-08-17T05:29:35.650Z,4.00
2022-08-17T05:32:38.146Z,3.85
2022-08-17T05:35:00.337Z,4.03
2022-08-17T05:37:26.921Z,4.10
2022-08-17T05:39:53.854Z,4.07
2022-08-17T05:42:20.864Z,3.92
2022-08-17T05:44:47.234Z,4.10
2022-08-17T05:47:13.736Z,3.80
2022-08-17T05:49:40.117Z,3.50
2022-08-17T05:52:53.216Z,3.95
2022-08-17T05:55:53.024Z,3.80
2022-08-17T05:58:42.040Z,3.47
2022-08-17T06:01:48.134Z,3.38
2022-08-17T06:04:35.695Z,4.00
2022-08-17T06:07:13.291Z,3.58
2022-08-17T06:09:56.262Z,4.20
2022-08-17T06:12:34.888Z,3.80
2022-08-17T06:15:04.735Z,3.83
2022-08-17T06:17:31.425Z,3.88
2022-08-17T06:20:02.617Z,4.00
2022-08-17T06:22:35.889Z,4.30
2022-08-17T06:25:12.997Z,3.83
2022-08-17T06:28:08.529Z,5.00
2022-08-17T06:31:01.048Z,4.47
2022-08-17T06:33:35.643Z,4.32
2022-08-17T06:36:36.815Z,4.60
2022-08-17T06:39:28.010Z,5.13
2022-08-17T06:42:06.351Z,4.50
2022-08-17T06:44:51.411Z,4.85
2022-08-17T06:47:28.831Z,4.20
2022-08-17T06:50:14.469Z,4.65
2022-08-17T06:53:10.092Z,4.90
2022-08-17T06:56:13.883Z,5.55
2022-08-17T06:58:43.313Z,4.70
2022-08-17T07:01:16.853Z,5.80
2022-08-17T07:03:46.004Z,4.72
2022-08-17T07:09:34.021Z,5.78
2022-08-17T07:12:10.668Z,6.00
2022-08-17T07:14:48.460Z,5.63
2022-08-17T07:17:18.292Z,5.72
2022-08-17T07:19:47.340Z,5.80
2022-08-17T07:22:50.545Z,6.45
2022-08-17T07:25:26.359Z,6.00
2022-08-17T07:27:55.825Z,6.07
2022-08-17T07:30:29.203Z,6.07
2022-08-17T07:33:08.159Z,6.13
2022-08-17T07:35:43.903Z,5.88
2022-08-17T07:38:31.697Z,5.82
2022-08-17T07:41:01.854Z,6.15
2022-08-17T07:43:41.725Z,6.60
2022-08-17T07:46:29.880Z,7.13
2022-08-17T07:49:07.380Z,6.55
2022-08-17T07:51:39.008Z,7.15
2022-08-17T07:54:43.906Z,6.82
2022-08-17T07:57:12.889Z,6.30
2022-08-17T07:59:43.328Z,7.20
2022-08-17T08:02:41.712Z,6.70
2022-08-17T08:05:49.537Z,7.18
2022-08-17T08:08:32.714Z,6.90
2022-08-17T08:11:21.531Z,6.75
2022-08-17T08:13:49.817Z,6.93
2022-08-17T08:16:29.429Z,7.18
2022-08-17T08:18:58.770Z,7.53
2022-08-17T08:21:35.583Z,7.82
2022-08-17T08:24:32.689Z,7.45
2022-08-17T08:27:11.133Z,7.97
2022-08-17T08:30:06.106Z,7.78
2022-08-17T08:32:48.541Z,7.57
2022-08-17T08:35:34.418Z,8.05
2022-08-17T08:38:19.932Z,7.22
2022-08-17T08:43:43.428Z,7.07
2022-08-17T08:46:29.524Z,7.10
2022-08-17T08:50:02.237Z,7.53
2022-08-17T08:52:42.892Z,6.82
2022-08-17T08:55:19.667Z,7.07
2022-08-17T08:57:59.805Z,7.38
2022-08-17T09:00:27.401Z,6.72
2022-08-17T09:03:31.571Z,6.57
2022-08-17T09:06:37.623Z,6.82
2022-08-17T09:09:04.397Z,6.30
2022-08-17T09:12:02.603Z,6.60
2022-08-17T09:14:46.638Z,6.93
2022-08-17T09:17:46.914Z,7.18
2022-08-17T09:20:27.393Z,6.72
2022-08-17T09:23:07.988Z,8.02
2022-08-17T09:25:45.700Z,6.95
2022-08-17T09:28:24.952Z,7.07
2022-08-17T09:30:55.971Z,7.68
2022-08-17T09:33:27.544Z,8.55
2022-08-17T09:36:03.314Z,8.05
2022-08-17T09:38:43.242Z,7.22
2022-08-17T09:41:20.400Z,6.15
2022-08-17T09:43:58.533Z,6.97
2022-08-17T09:46:30.609Z,7.35
2022-08-17T09:49:02.059Z,5.78
2022-08-17T09:51:34.810Z,7.18
2022-08-17T09:54:21.379Z,7.32
2022-08-17T09:57:28.585Z,6.78
2022-08-17T10:00:01.194Z,7.07
2022-08-17T10:02:53.487Z,6.68
2022-08-17T10:05:37.391Z,7.85
2022-08-17T10:08:23.941Z,7.70
2022-08-17T10:11:10.913Z,7.88
2022-08-17T10:13:53.977Z,8.00
2022-08-17T10:16:43.738Z,7.20
2022-08-17T10:19:19.192Z,7.72
2022-08-17T10:22:32.585Z,8.07
2022-08-17T10:25:22.616Z,7.00
2022-08-17T10:27:55.261Z,7.53
2022-08-17T10:30:26.682Z,7.40
2022-08-17T10:32:59.125Z,6.90
2022-08-17T10:35:35.131Z,7.35
2022-08-17T10:38:27.229Z,6.80
2022-08-17T10:41:00.303Z,6.70
2022-08-17T10:44:30.628Z,7.07
2022-08-17T10:46:46.637Z,7.78
2022-08-17T10:49:24.366Z,7.18
2022-08-17T10:51:54.282Z,7.65
2022-08-17T10:54:39.917Z,7.63
2022-08-17T10:57:34.072Z,7.15
2022-08-17T11:00:36.070Z,6.43
2022-08-17T11:03:17.149Z,6.38
2022-08-17T11:05:59.341Z,7.55
2022-08-17T11:09:12.644Z,7.45
2022-08-17T11:11:57.168Z,6.30
2022-08-17T11:14:51.672Z,7.33
2022-08-17T11:17:57.370Z,6.47
2022-08-17T11:20:34.280Z,6.20
2022-08-17T11:23:18.262Z,6.65
2022-08-17T11:25:54.438Z,7.53
2022-08-17T11:28:26.750Z,6.25
2022-08-17T11:30:59.680Z,6.32
2022-08-17T11:33:29.396Z,5.63
2022-08-17T11:36:22.378Z,5.63
2022-08-17T11:39:18.034Z,5.68
2022-08-17T11:47:19.516Z,4.40
2022-08-17T11:50:27.684Z,4.82
2022-08-17T11:52:54.933Z,4.35
2022-08-17T11:55:37.441Z,4.10
2022-08-17T11:58:25.737Z,4.10
2022-08-17T12:00:58.544Z,3.40
2022-08-17T12:03:34.055Z,4.38
2022-08-17T12:06:19.659Z,3.95
2022-08-17T12:08:56.286Z,4.10
2022-08-17T12:12:11.160Z,3.58
2022-08-17T12:14:32.249Z,3.15
2022-08-17T12:17:13.976Z,3.55
2022-08-17T12:19:49.331Z,3.80
2022-08-17T12:22:25.181Z,3.60
2022-08-17T12:24:56.537Z,4.25
2022-08-17T12:28:04.104Z,3.97
2022-08-17T12:30:21.873Z,3.40
2022-08-17T12:32:48.484Z,3.35
2022-08-17T12:35:35.404Z,3.45
2022-08-17T12:38:03.393Z,3.50
2022-08-17T12:40:32.479Z,3.55
2022-08-17T12:43:18.683Z,3.60
2022-08-17T12:45:53.640Z,3.50
2022-08-17T12:48:24.966Z,3.78
2022-08-17T12:50:52.247Z,3.75
2022-08-17T12:53:25.607Z,3.80
2022-08-17T12:55:52.456Z,3.42
2022-08-17T12:58:22.460Z,3.80
2022-08-17T13:00:55.354Z,4.35
2022-08-17T13:03:24.494Z,3.83
2022-08-17T13:06:09.420Z,4.03
2022-08-17T13:08:39.195Z,4.10
2022-08-17T13:11:09.276Z,3.58
2022-08-17T13:13:38.964Z,3.72
2022-08-17T13:16:18.437Z,3.92
2022-08-17T13:18:51.742Z,3.78
2022-08-17T13:21:26.939Z,4.00
2022-08-17T13:24:14.871Z,3.90
2022-08-17T13:26:45.656Z,3.72
2022-08-17T13:29:51.224Z,4.00
2022-08-17T13:32:43.739Z,5.25
2022-08-17T13:35:40.939Z,3.85
2022-08-17T13:38:14.926Z,3.58
2022-08-17T13:40:43.783Z,3.70
2022-08-17T13:43:11.573Z,3.70
2022-08-17T13:45:50.859Z,3.60
2022-08-17T13:48:27.567Z,4.00
2022-08-17T13:50:57.099Z,3.63
2022-08-17T13:53:25.088Z,3.58
2022-08-17T13:55:53.101Z,3.60
2022-08-17T13:58:22.354Z,4.65
2022-08-17T14:00:50.634Z,4.05
2022-08-17T14:03:18.618Z,4.28
2022-08-17T14:05:46.004Z,4.03
2022-08-17T14:08:15.212Z,4.82
2022-08-17T14:10:42.308Z,3.30
2022-08-17T14:13:08.845Z,3.20
2022-08-17T14:15:55.816Z,3.42
2022-08-17T14:18:37.527Z,3.15
2022-08-17T14:21:13.313Z,3.38
2022-08-17T14:23:39.864Z,3.28
2022-08-17T14:26:10.460Z,4.57
2022-08-17T14:28:38.615Z,3.05
2022-08-17T14:31:17.104Z,4.35
2022-08-17T14:33:43.494Z,3.47
2022-08-17T14:36:09.922Z,2.95
2022-08-17T14:38:37.776Z,3.15
2022-08-17T14:41:05.027Z,3.42
2022-08-17T14:43:35.184Z,3.22
2022-08-17T14:46:01.959Z,2.70
2022-08-17T14:48:28.878Z,2.90
2022-08-17T14:50:56.425Z,2.67
2022-08-17T14:53:22.903Z,2.90
2022-08-17T14:55:51.149Z,2.95
2022-08-17T14:58:18.262Z,2.83
2022-08-17T15:00:44.820Z,2.80
2022-08-17T15:03:11.693Z,3.13
2022-08-17T15:05:39.238Z,2.88
2022-08-17T15:08:07.761Z,3.00
2022-08-17T15:10:34.522Z,3.38
2022-08-17T15:13:01.252Z,2.97
2022-08-17T15:15:28.444Z,3.58
2022-08-17T15:17:54.982Z,3.50
2022-08-17T15:20:27.453Z,3.42
2022-08-17T15:22:55.437Z,3.60
2022-08-17T15:25:22.906Z,3.80
2022-08-17T15:27:49.601Z,3.63
2022-08-17T15:30:16.916Z,3.60
2022-08-17T15:32:50.889Z,4.88
2022-08-17T15:35:27.311Z,3.30
2022-08-17T15:37:55.548Z,3.45
2022-08-17T15:40:21.916Z,3.20
2022-08-17T15:42:48.464Z,3.50
2022-08-17T15:45:21.099Z,3.08
2022-08-17T15:47:47.457Z,3.05
2022-08-17T15:50:13.851Z,2.95
2022-08-17T15:52:40.558Z,3.25
2022-08-17T15:55:11.917Z,3.00
2022-08-17T15:57:38.899Z,2.90
2022-08-17T16:00:10.055Z,3.10
2022-08-17T16:03:45.508Z,3.13
2022-08-17T16:05:28.463Z,2.80
2022-08-17T16:07:58.487Z,3.40
2022-08-17T16:10:33.970Z,2.97
2022-08-17T16:13:02.858Z,3.08
2022-08-17T16:15:31.002Z,3.00
2022-08-17T16:17:57.708Z,2.78
2022-08-17T16:20:24.045Z,2.85
2022-08-17T16:22:50.777Z,3.35
2022-08-17T16:25:21.983Z,3.20
2022-08-17T16:27:53.215Z,3.47
2022-08-17T16:30:22.733Z,3.00
2022-08-17T16:32:53.877Z,3.60
2022-08-17T16:35:22.537Z,3.53
2022-08-17T16:37:49.118Z,3.45
2022-08-17T16:40:16.943Z,3.63
2022-08-17T16:42:45.803Z,3.28
2022-08-17T16:45:18.426Z,3.58
2022-08-17T16:47:45.521Z,3.30
2022-08-17T16:50:14.254Z,14.25
2022-08-17T16:52:41.611Z,3.65
2022-08-17T16:55:13.328Z,5.43
2022-08-17T16:57:47.344Z,4.00
2022-08-17T17:00:16.976Z,3.97
2022-08-17T17:02:49.477Z,3.28
2022-08-17T17:05:36.364Z,3.60
2022-08-17T17:08:15.077Z,3.90
2022-08-17T17:10:55.155Z,3.88
2022-08-17T17:13:30.466Z,3.20
2022-08-17T17:16:15.409Z,3.30
2022-08-17T17:21:14.151Z,3.67
2022-08-17T17:23:50.107Z,4.18
2022-08-17T17:26:51.948Z,3.50
2022-08-17T17:29:47.378Z,3.70
2022-08-17T17:32:25.184Z,3.33
2022-08-17T17:35:04.428Z,3.13
2022-08-17T17:37:34.587Z,3.47
2022-08-17T17:40:17.019Z,3.88
2022-08-17T17:42:44.342Z,3.08
2022-08-17T17:45:46.070Z,3.80
2022-08-17T17:48:12.686Z,3.42
2022-08-17T17:51:02.032Z,3.20
2022-08-17T17:54:01.205Z,3.40
2022-08-17T17:56:44.182Z,3.20
2022-08-17T17:59:43.891Z,3.38
2022-08-17T18:02:52.018Z,3.20
2022-08-17T18:05:37.188Z,3.22
2022-08-17T18:08:34.679Z,3.50
2022-08-17T18:11:37.207Z,3.33
2022-08-17T18:14:17.158Z,3.83
2022-08-17T18:16:45.198Z,3.80
2022-08-17T18:19:14.516Z,3.30
2022-08-17T18:21:45.765Z,3.70
2022-08-17T18:24:13.418Z,3.70
2022-08-17T18:27:08.653Z,3.85
2022-08-17T18:32:30.993Z,3.40
2022-08-17T18:35:27.748Z,3.85
2022-08-17T18:38:28.527Z,3.65
2022-08-17T18:41:18.260Z,4.60
2022-08-17T18:43:57.368Z,3.80
2022-08-17T18:46:36.780Z,3.90
2022-08-17T18:49:28.984Z,3.72
2022-08-17T18:52:22.975Z,4.03
2022-08-17T18:55:04.384Z,3.78
2022-08-17T18:57:38.436Z,3.72
2022-08-17T19:00:36.858Z,5.05
2022-08-17T19:03:23.058Z,3.58
2022-08-17T19:05:53.536Z,3.60
2022-08-17T19:08:29.137Z,3.53
2022-08-17T19:10:59.026Z,3.60
2022-08-17T19:13:30.885Z,4.10
2022-08-17T19:16:07.786Z,3.75
2022-08-17T19:19:14.599Z,3.95
2022-08-17T19:21:53.152Z,3.88
2022-08-17T19:24:22.579Z,3.80
2022-08-17T19:26:56.854Z,3.72
2022-08-17T19:29:54.380Z,3.85
2022-08-17T19:32:34.169Z,4.00
2022-08-17T19:35:01.946Z,3.88
2022-08-17T19:37:46.592Z,3.75
2022-08-17T19:40:54.039Z,3.97
2022-08-17T19:43:36.477Z,4.55
2022-08-17T19:46:18.958Z,3.75
2022-08-17T19:49:10.260Z,4.00
2022-08-17T19:52:00.448Z,3.75
2022-08-17T19:54:35.758Z,3.92
2022-08-17T19:57:33.809Z,3.95
2022-08-17T20:00:13.657Z,4.03
2022-08-17T20:02:55.357Z,3.88
2022-08-17T20:05:23.864Z,4.28
2022-08-17T20:07:56.502Z,3.72
2022-08-17T20:10:30.366Z,4.00
2022-08-17T20:13:02.940Z,4.60
2022-08-17T20:15:33.121Z,4.30
2022-08-17T20:18:02.263Z,3.70
2022-08-17T20:20:37.601Z,3.95
2022-08-17T20:23:28.712Z,4.00
2022-08-17T20:26:18.915Z,3.65
2022-08-17T20:29:07.934Z,3.78
2022-08-17T20:31:41.713Z,3.78
2022-08-17T20:34:34.965Z,3.80
2022-08-17T20:37:12.856Z,3.75
2022-08-17T20:40:09.896Z,3.75
2022-08-17T20:42:36.780Z,4.22
2022-08-17T20:45:25.823Z,4.18
2022-08-17T20:48:35.024Z,4.55
2022-08-17T20:50:56.041Z,4.15
2022-08-17T20:53:47.037Z,4.63
2022-08-17T20:56:44.622Z,3.85
2022-08-17T20:59:25.313Z,3.60
2022-08-17T21:02:19.384Z,3.90
2022-08-17T21:04:53.244Z,4.13
2022-08-17T21:07:28.928Z,3.80
2022-08-17T21:10:15.884Z,4.10
2022-08-17T21:12:52.685Z,3.88
2022-08-17T21:15:19.093Z,5.00
2022-08-17T21:17:56.261Z,4.40
2022-08-17T21:20:48.728Z,4.10
2022-08-17T21:23:32.989Z,3.97
2022-08-17T21:26:09.649Z,4.68
2022-08-17T21:29:29.880Z,4.38
2022-08-17T21:32:01.755Z,4.55
2022-08-17T21:34:32.925Z,4.30
2022-08-17T21:37:22.128Z,4.30
2022-08-17T21:40:10.147Z,4.65
2022-08-17T21:42:44.761Z,4.65
2022-08-17T21:45:23.066Z,4.55
2022-08-17T21:48:05.897Z,4.10
2022-08-17T21:50:32.683Z,4.60
2022-08-17T21:53:02.121Z,4.00
2022-08-17T21:55:31.211Z,4.55
2022-08-17T21:58:14.617Z,4.57
2022-08-17T22:00:44.107Z,4.32
2022-08-17T22:03:28.544Z,4.90
2022-08-17T22:05:54.879Z,5.65
2022-08-17T22:08:25.686Z,4.07
2022-08-17T22:11:01.572Z,4.30
2022-08-17T22:13:29.825Z,4.25
2022-08-17T22:16:29.391Z,4.85
2022-08-17T22:18:58.744Z,5.07
2022-08-17T22:21:26.049Z,5.03
2022-08-17T22:24:21.482Z,5.60
2022-08-17T22:27:07.376Z,5.63
2022-08-17T22:29:57.295Z,5.22
2022-08-17T22:32:31.198Z,5.38
2022-08-17T22:35:18.071Z,6.10
2022-08-17T22:37:45.019Z,5.95
2022-08-17T22:40:25.607Z,6.40
2022-08-17T22:42:52.260Z,6.53
2022-08-17T22:45:18.660Z,6.50
2022-08-17T22:47:48.698Z,7.15
2022-08-17T22:50:24.329Z,6.45
2022-08-17T22:53:21.587Z,6.45
2022-08-17T22:56:11.892Z,6.95
2022-08-17T22:59:20.333Z,6.95
2022-08-17T23:02:24.057Z,6.57
2022-08-17T23:05:16.684Z,7.40
2022-08-17T23:07:44.616Z,6.97
2022-08-17T23:10:13.412Z,6.95
2022-08-17T23:12:40.253Z,6.47
2022-08-17T23:15:18.854Z,7.15
2022-08-17T23:17:45.848Z,7.07
2022-08-17T23:20:14.908Z,7.30
2022-08-17T23:22:51.352Z,7.57
2022-08-17T23:25:26.291Z,7.53
2022-08-17T23:27:53.078Z,7.50
2022-08-17T23:30:19.775Z,6.88
2022-08-17T23:32:53.816Z,7.22
2022-08-17T23:35:38.926Z,7.57
2022-08-17T23:38:10.581Z,8.55
2022-08-17T23:40:37.832Z,8.20
2022-08-17T23:43:17.416Z,8.20
2022-08-17T23:45:54.119Z,7.47
2022-08-17T23:48:35.133Z,8.70
2022-08-17T23:51:13.934Z,8.57
2022-08-17T23:53:47.793Z,8.88
2022-08-17T23:56:14.891Z,8.50
2022-08-17T23:58:43.215Z,9.30
